Skip Navigation LinksHome page > Weather > Current weather Skip Navigation Links

Current Weather

San Francisco International, San Francisco

For information only: do not use for flight planning or navigation.
Latest weather
Observation time Tuesday, September 28, 2021 2:56 AM PDT
Local time Tuesday, September 28, 2021 3:55 AM PDT
Flight conditions Visual Meteorological Conditions
Winds
Wind direction West (270°)
Wind speed 14 mph
Visibility 10 mi.
Sky condition
Ceiling unlimited
Sky clear
Temperature 58°F
Dewpoint 53°F
Altimeter 30.07 in.Hg
Derived measurements
Relative humidity 84%
Density altitude -35 ft.
Sea-level pressure 30.07 in.Hg
Remarks
System requires maintenance.
Automated weather observing station with precipitation discriminator.
METAR KSFO 280956Z 27012KT 10SM CLR 14/12 A3007 RMK AO2 SLP182 T01440117 $

Settings

Location code

InnerDrive.Weather 4.0.6770.0 Release CLR 4.0.30319.42000
Copyright ©2018 Inner Drive Technology. All rights reserved. Portions Copyright ©1986-2018 David Braverman.

Find weather

Site navigation


Skip Navigation Links

Place info

Page info

PayPal - The safer, easier way to pay online!

Return home.

Copyright ©2021 Inner Drive Technology. Purveyors of fine, hand-crafted computer software. Page printed 2021-09-28T10:55:46 UTC.